Time;durP1;ratioP1;P1;durP2;ratioP2;P2;SDS_P1;SDS_P2;PMS_P1;PMS_P2;Temp;Humidity;BMP_temperature;BMP_pressure;BME280_temperature;BME280_humidity;BME280_pressure;Samples;Min_cycle;Max_cycle;Signal;HPM_P1;HPM_P2
2023/02/26 00:01:23;;;;;;;;;;;;;;;;;;4942412;28;20535;-75
2023/02/26 00:04:10;;;;;;;;;;;;;;;;;;4940790;28;19919;-75
2023/02/26 00:06:56;;;;;;;;;;;;;;;;;;4940811;29;19925;-74
2023/02/26 00:09:43;;;;;;;;;;;;;;;;;;4940116;29;19934;-75
2023/02/26 00:12:29;;;;;;;;;;;;;;;;;;4941147;28;20371;-76
2023/02/26 00:15:17;;;;;;;;;;;;;;;;;;4940969;29;20382;-75
2023/02/26 00:18:03;;;;;;;;;;;;;;;;;;4928701;28;20379;-75
2023/02/26 00:20:50;;;;;;;;;;;;;;;;;;4935708;28;19925;-75
2023/02/26 00:23:36;;;;;;;;;;;;;;;;;;4936148;29;20568;-74
2023/02/26 00:26:23;;;;;;;;;;;;;;;;;;4938678;28;19927;-74
2023/02/26 00:29:09;;;;;;;;;;;;;;;;;;4936694;29;19923;-74
2023/02/26 00:31:55;;;;;;;;;;;;;;;;;;4934580;29;20300;-74
2023/02/26 00:34:42;;;;;;;;;;;;;;;;;;4935420;28;19922;-75
2023/02/26 00:37:28;;;;;;;;;;;;;;;;;;4942273;28;19945;-75
2023/02/26 00:40:15;;;;;;;;;;;;;;;;;;4923989;29;19919;-75
2023/02/26 00:43:02;;;;;;;;;;;;;;;;;;4933559;29;19982;-75
2023/02/26 00:45:48;;;;;;;;;;;;;;;;;;4937467;28;19957;-75
2023/02/26 00:48:35;;;;;;;;;;;;;;;;;;4940030;28;19919;-74
2023/02/26 00:51:21;;;;;;;;;;;;;;;;;;4940258;29;19933;-73
2023/02/26 00:54:08;;;;;;;;;;;;;;;;;;4947024;28;19941;-73
2023/02/26 00:56:54;;;;;;;;;;;;;;;;;;4936701;28;20393;-74
2023/02/26 00:59:40;;;;;;;;;;;;;;;;;;4936815;28;19926;-75
2023/02/26 01:02:27;;;;;;;;;;;;;;;;;;4937294;28;19923;-74
2023/02/26 01:05:13;;;;;;;;;;;;;;;;;;4926398;28;20508;-74
2023/02/26 01:08:00;;;;;;;;;;;;;;;;;;4924847;29;19930;-74
2023/02/26 01:10:46;;;;;;;;;;;;;;;;;;4938163;29;20426;-74
2023/02/26 01:13:33;;;;;;;;;;;;;;;;;;4935643;28;19927;-74
2023/02/26 01:16:20;;;;;;;;;;;;;;;;;;4934702;29;20394;-74
2023/02/26 01:19:08;;;;;;;;;;;;;;;;;;4934738;28;19926;-74
2023/02/26 01:21:54;;;;;;;;;;;;;;;;;;4937563;28;19918;-75
2023/02/26 01:24:41;;;;;;;;;;;;;;;;;;4945371;28;20525;-75
2023/02/26 01:27:27;;;;;;;;;;;;;;;;;;4944795;28;19918;-75
2023/02/26 01:30:14;;;;;;;;;;;;;;;;;;4928796;29;19931;-74
2023/02/26 01:33:00;;;;;;;;;;;;;;;;;;4937753;29;19919;-74
2023/02/26 01:35:47;;;;;;;;;;;;;;;;;;4945643;28;19926;-75
2023/02/26 01:38:33;;;;;;;;;;;;;;;;;;4924999;29;20360;-76
2023/02/26 01:41:20;;;;;;;;;;;;;;;;;;4937702;28;19919;-74
2023/02/26 01:44:06;;;;;;;;;;;;;;;;;;4930751;28;20410;-75
2023/02/26 01:46:53;;;;;;;;;;;;;;;;;;4930465;28;19986;-75
2023/02/26 01:49:39;;;;;;;;;;;;;;;;;;4935381;29;19937;-75
2023/02/26 01:52:26;;;;;;;;;;;;;;;;;;4933452;28;19953;-75
2023/02/26 01:55:12;;;;;;;;;;;;;;;;;;4939243;28;20620;-75
2023/02/26 01:57:59;;;;;;;;;;;;;;;;;;4935003;29;19919;-75
2023/02/26 02:00:45;;;;;;;;;;;;;;;;;;4933287;29;19923;-75
2023/02/26 02:03:32;;;;;;;;;;;;;;;;;;4936786;28;19925;-78
2023/02/26 02:06:18;;;;;;;;;;;;;;;;;;4933629;28;19922;-76
2023/02/26 02:09:05;;;;;;;;;;;;;;;;;;4925250;29;20383;-77
2023/02/26 02:11:51;;;;;;;;;;;;;;;;;;4941977;28;19918;-76
2023/02/26 02:14:38;;;;;;;;;;;;;;;;;;4942301;28;19946;-76
2023/02/26 02:17:24;;;;;;;;;;;;;;;;;;4933788;29;19918;-77
2023/02/26 02:20:10;;;;;;;;;;;;;;;;;;4935635;28;19918;-77
2023/02/26 02:22:58;;;;;;;;;;;;;;;;;;4940815;28;20862;-77
2023/02/26 02:25:45;;;;;;;;;;;;;;;;;;4929998;29;19926;-76
2023/02/26 02:28:31;;;;;;;;;;;;;;;;;;4941941;28;20276;-75
2023/02/26 02:31:17;;;;;;;;;;;;;;;;;;4938001;29;19933;-76
2023/02/26 02:34:04;;;;;;;;;;;;;;;;;;4929291;28;19934;-76
2023/02/26 02:36:50;;;;;;;;;;;;;;;;;;4930167;29;19918;-77
2023/02/26 02:39:37;;;;;;;;;;;;;;;;;;4932098;28;19919;-78
2023/02/26 02:42:24;;;;;;;;;;;;;;;;;;4940204;29;20672;-77
2023/02/26 02:45:10;;;;;;;;;;;;;;;;;;4943670;28;20472;-77
2023/02/26 02:47:57;;;;;;;;;;;;;;;;;;4936304;28;19925;-76
2023/02/26 02:50:43;;;;;;;;;;;;;;;;;;4920220;29;19938;-77
2023/02/26 02:53:30;;;;;;;;;;;;;;;;;;4927079;28;20673;-77
2023/02/26 02:56:16;;;;;;;;;;;;;;;;;;4940418;28;19919;-76
2023/02/26 02:59:03;;;;;;;;;;;;;;;;;;4933277;29;19926;-77
2023/02/26 03:01:49;;;;;;;;;;;;;;;;;;4932345;28;19915;-77
2023/02/26 03:04:36;;;;;;;;;;;;;;;;;;4940755;28;19922;-77
2023/02/26 03:07:22;;;;;;;;;;;;;;;;;;4948484;28;20550;-77
2023/02/26 03:10:09;;;;;;;;;;;;;;;;;;4949194;29;19937;-78
2023/02/26 03:12:55;;;;;;;;;;;;;;;;;;4940633;28;19915;-76
2023/02/26 03:15:42;;;;;;;;;;;;;;;;;;4933659;29;19915;-76
2023/02/26 03:18:28;;;;;;;;;;;;;;;;;;4936364;29;20287;-78
2023/02/26 03:21:15;;;;;;;;;;;;;;;;;;4947517;29;19918;-77
2023/02/26 03:24:02;;;;;;;;;;;;;;;;;;4949071;28;19929;-77
2023/02/26 03:26:49;;;;;;;;;;;;;;;;;;4923655;29;19923;-75
2023/02/26 03:29:36;;;;;;;;;;;;;;;;;;4935686;28;19931;-76
2023/02/26 03:32:22;;;;;;;;;;;;;;;;;;4946118;28;19918;-76
2023/02/26 03:35:09;;;;;;;;;;;;;;;;;;4930162;28;19929;-76
2023/02/26 03:37:56;;;;;;;;;;;;;;;;;;4930400;29;19918;-76
2023/02/26 03:40:42;;;;;;;;;;;;;;;;;;4940897;29;19925;-77
2023/02/26 03:43:29;;;;;;;;;;;;;;;;;;4931502;28;20359;-77
2023/02/26 03:46:15;;;;;;;;;;;;;;;;;;4946403;28;19914;-76
2023/02/26 03:49:02;;;;;;;;;;;;;;;;;;4929001;29;19926;-76
2023/02/26 03:51:48;;;;;;;;;;;;;;;;;;4936395;29;19929;-76
2023/02/26 03:54:35;;;;;;;;;;;;;;;;;;4944588;28;20295;-77
2023/02/26 03:57:21;;;;;;;;;;;;;;;;;;4943232;29;20400;-77
2023/02/26 04:00:09;;;;;;;;;;;;;;;;;;4945564;29;19918;-77
2023/02/26 04:02:55;;;;;;;;;;;;;;;;;;4927217;29;19918;-77
2023/02/26 04:05:42;;;;;;;;;;;;;;;;;;4945674;28;19918;-77
2023/02/26 04:08:28;;;;;;;;;;;;;;;;;;4939236;29;19936;-77
2023/02/26 04:11:16;;;;;;;;;;;;;;;;;;4938030;28;19933;-77
2023/02/26 04:14:02;;;;;;;;;;;;;;;;;;4931491;29;20026;-76
2023/02/26 04:16:49;;;;;;;;;;;;;;;;;;4939234;28;19923;-77
2023/02/26 04:19:35;;;;;;;;;;;;;;;;;;4941201;28;20434;-77
2023/02/26 04:22:22;;;;;;;;;;;;;;;;;;4943433;29;20401;-76
2023/02/26 04:25:08;;;;;;;;;;;;;;;;;;4939426;29;19929;-76
2023/02/26 04:27:55;;;;;;;;;;;;;;;;;;4939964;28;19919;-76
2023/02/26 04:30:41;;;;;;;;;;;;;;;;;;4924721;29;19931;-77
2023/02/26 04:33:28;;;;;;;;;;;;;;;;;;4936274;29;20629;-78
2023/02/26 04:36:14;;;;;;;;;;;;;;;;;;4932423;28;19933;-77
2023/02/26 04:39:01;;;;;;;;;;;;;;;;;;4934229;28;19918;-78
2023/02/26 04:41:48;;;;;;;;;;;;;;;;;;4936356;29;19945;-78
2023/02/26 04:44:34;;;;;;;;;;;;;;;;;;4944196;28;20276;-77
2023/02/26 04:47:20;;;;;;;;;;;;;;;;;;4936436;28;19915;-77
2023/02/26 04:50:07;;;;;;;;;;;;;;;;;;4935688;28;19926;-77
2023/02/26 04:52:54;;;;;;;;;;;;;;;;;;4944226;28;20295;-78
2023/02/26 04:55:40;;;;;;;;;;;;;;;;;;4940724;29;19944;-77
2023/02/26 04:58:27;;;;;;;;;;;;;;;;;;4940470;28;19929;-76
2023/02/26 05:01:14;;;;;;;;;;;;;;;;;;4933320;29;20413;-76
2023/02/26 05:04:00;;;;;;;;;;;;;;;;;;4934074;29;19919;-77
2023/02/26 05:06:47;;;;;;;;;;;;;;;;;;4935365;28;19930;-76
2023/02/26 05:09:34;;;;;;;;;;;;;;;;;;4934169;29;19931;-77
2023/02/26 05:12:20;;;;;;;;;;;;;;;;;;4935388;28;19930;-78
2023/02/26 05:15:06;;;;;;;;;;;;;;;;;;4941088;28;20299;-77
2023/02/26 05:17:53;;;;;;;;;;;;;;;;;;4936598;29;19922;-77
2023/02/26 05:20:40;;;;;;;;;;;;;;;;;;4935115;29;19919;-77
2023/02/26 05:23:26;;;;;;;;;;;;;;;;;;4946608;29;19922;-77
2023/02/26 05:26:13;;;;;;;;;;;;;;;;;;4936064;28;19953;-77
2023/02/26 05:28:59;;;;;;;;;;;;;;;;;;4930293;29;20001;-76
2023/02/26 05:31:46;;;;;;;;;;;;;;;;;;4936158;29;19930;-77
2023/02/26 05:34:32;;;;;;;;;;;;;;;;;;4921784;29;19946;-77
2023/02/26 05:37:22;;;;;;;;;;;;;;;;;;4938490;28;19918;-77
2023/02/26 05:40:11;;;;;;;;;;;;;;;;;;4944313;28;20294;-77
2023/02/26 05:42:57;;;;;;;;;;;;;;;;;;4953083;28;19922;-76
2023/02/26 05:45:44;;;;;;;;;;;;;;;;;;4939175;28;20281;-77
2023/02/26 05:48:30;;;;;;;;;;;;;;;;;;4929805;28;19925;-77
2023/02/26 05:51:17;;;;;;;;;;;;;;;;;;4935504;28;20442;-76
2023/02/26 05:54:03;;;;;;;;;;;;;;;;;;4944983;28;19925;-76
2023/02/26 05:56:50;;;;;;;;;;;;;;;;;;4932282;29;19923;-77
2023/02/26 05:59:37;;;;;;;;;;;;;;;;;;4939939;29;19923;-78
2023/02/26 06:02:24;;;;;;;;;;;;;;;;;;4922493;29;19923;-77
2023/02/26 06:05:10;;;;;;;;;;;;;;;;;;4942918;28;19941;-79
2023/02/26 06:07:57;;;;;;;;;;;;;;;;;;4935059;29;19930;-77
2023/02/26 06:10:43;;;;;;;;;;;;;;;;;;4944515;28;19934;-77
2023/02/26 06:13:30;;;;;;;;;;;;;;;;;;4928207;29;19919;-77
2023/02/26 06:16:16;;;;;;;;;;;;;;;;;;4937088;29;19925;-77
2023/02/26 06:19:03;;;;;;;;;;;;;;;;;;4934521;28;20298;-77
2023/02/26 06:21:49;;;;;;;;;;;;;;;;;;4938804;29;19922;-76
2023/02/26 06:24:36;;;;;;;;;;;;;;;;;;4932384;29;19930;-77
2023/02/26 06:27:22;;;;;;;;;;;;;;;;;;4938948;29;19918;-76
2023/02/26 06:30:09;;;;;;;;;;;;;;;;;;4925938;29;19934;-77
2023/02/26 06:32:55;;;;;;;;;;;;;;;;;;4934334;28;19919;-77
2023/02/26 06:35:42;;;;;;;;;;;;;;;;;;4937004;28;19949;-77
2023/02/26 06:38:28;;;;;;;;;;;;;;;;;;4926253;29;19919;-79
2023/02/26 06:41:15;;;;;;;;;;;;;;;;;;4932524;28;19923;-77
2023/02/26 06:44:01;;;;;;;;;;;;;;;;;;4931448;29;19919;-76
2023/02/26 06:46:48;;;;;;;;;;;;;;;;;;4944993;28;24262;-76
2023/02/26 06:49:34;;;;;;;;;;;;;;;;;;4933329;29;19934;-77
2023/02/26 06:52:21;;;;;;;;;;;;;;;;;;4932782;29;20275;-76
2023/02/26 06:55:07;;;;;;;;;;;;;;;;;;4936317;28;19923;-77
2023/02/26 06:57:54;;;;;;;;;;;;;;;;;;4937390;29;19926;-76
2023/02/26 07:00:40;;;;;;;;;;;;;;;;;;4937008;29;19921;-77
2023/02/26 07:03:27;;;;;;;;;;;;;;;;;;4935240;28;19922;-76
2023/02/26 07:06:13;;;;;;;;;;;;;;;;;;4931522;28;19926;-75
2023/02/26 07:09:00;;;;;;;;;;;;;;;;;;4932548;28;19969;-75
2023/02/26 07:11:46;;;;;;;;;;;;;;;;;;4927425;28;20322;-76
2023/02/26 07:14:33;;;;;;;;;;;;;;;;;;4939003;28;19930;-76
2023/02/26 07:17:19;;;;;;;;;;;;;;;;;;4931781;28;19929;-76
2023/02/26 07:20:08;;;;;;;;;;;;;;;;;;4928052;29;19923;-76
2023/02/26 07:22:55;;;;;;;;;;;;;;;;;;4937441;28;19965;-76
2023/02/26 07:25:41;;;;;;;;;;;;;;;;;;4933498;28;20380;-75
2023/02/26 07:28:28;;;;;;;;;;;;;;;;;;4922427;29;19922;-75
2023/02/26 07:31:15;;;;;;;;;;;;;;;;;;4930258;28;19931;-76
2023/02/26 07:34:02;;;;;;;;;;;;;;;;;;4934962;28;19930;-73
2023/02/26 07:36:48;;;;;;;;;;;;;;;;;;4933311;29;19926;-73
2023/02/26 07:39:35;;;;;;;;;;;;;;;;;;4935806;29;19930;-74
2023/02/26 07:42:21;;;;;;;;;;;;;;;;;;4935085;28;20031;-75
2023/02/26 07:45:08;;;;;;;;;;;;;;;;;;4939821;28;20034;-76
2023/02/26 07:47:54;;;;;;;;;;;;;;;;;;4925237;29;20299;-74
2023/02/26 07:50:41;;;;;;;;;;;;;;;;;;4934327;29;19935;-74
2023/02/26 07:53:27;;;;;;;;;;;;;;;;;;4936958;29;19919;-75
2023/02/26 07:56:14;;;;;;;;;;;;;;;;;;4939806;29;19927;-73
2023/02/26 07:59:00;;;;;;;;;;;;;;;;;;4941226;28;19930;-73
2023/02/26 08:01:47;;;;;;;;;;;;;;;;;;4941786;29;19945;-74
2023/02/26 08:04:33;;;;;;;;;;;;;;;;;;4939419;28;19923;-75
2023/02/26 08:07:20;;;;;;;;;;;;;;;;;;4939691;29;20454;-75
2023/02/26 08:10:06;;;;;;;;;;;;;;;;;;4934009;28;19954;-76
2023/02/26 08:12:53;;;;;;;;;;;;;;;;;;4935516;28;19928;-75
2023/02/26 08:15:42;;;;;;;;;;;;;;;;;;4934020;28;19923;-75
2023/02/26 08:18:29;;;;;;;;;;;;;;;;;;4933513;28;19927;-75
2023/02/26 08:21:15;;;;;;;;;;;;;;;;;;4933674;29;19927;-75
2023/02/26 08:24:02;;;;;;;;;;;;;;;;;;4932373;28;19945;-74
2023/02/26 08:26:48;;;;;;;;;;;;;;;;;;4938471;29;19937;-75
2023/02/26 08:29:35;;;;;;;;;;;;;;;;;;4936092;28;20406;-75
2023/02/26 08:32:21;;;;;;;;;;;;;;;;;;4936748;29;20397;-74
2023/02/26 08:35:08;;;;;;;;;;;;;;;;;;4928788;29;19963;-75
2023/02/26 08:37:55;;;;;;;;;;;;;;;;;;4938875;29;19927;-75
2023/02/26 08:40:41;;;;;;;;;;;;;;;;;;4941463;28;20405;-75
2023/02/26 08:43:28;;;;;;;;;;;;;;;;;;4938327;28;19933;-75
2023/02/26 08:46:15;;;;;;;;;;;;;;;;;;4938755;29;19930;-75
2023/02/26 08:49:01;;;;;;;;;;;;;;;;;;4937108;28;20082;-74
2023/02/26 08:51:48;;;;;;;;;;;;;;;;;;4940419;28;19942;-74
2023/02/26 08:54:34;;;;;;;;;;;;;;;;;;4940911;28;19937;-75
2023/02/26 08:57:21;;;;;;;;;;;;;;;;;;4943941;28;20019;-75
2023/02/26 09:00:10;;;;;;;;;;;;;;;;;;4936587;28;19924;-75
2023/02/26 09:02:57;;;;;;;;;;;;;;;;;;4934824;28;20319;-74
2023/02/26 09:05:43;;;;;;;;;;;;;;;;;;4941742;28;19926;-75
2023/02/26 09:08:32;;;;;;;;;;;;;;;;;;4926518;29;19930;-74
2023/02/26 09:11:19;;;;;;;;;;;;;;;;;;4938091;28;19938;-75
2023/02/26 09:14:05;;;;;;;;;;;;;;;;;;4939869;28;20287;-75
2023/02/26 09:16:52;;;;;;;;;;;;;;;;;;4940494;28;19922;-75
2023/02/26 09:19:38;;;;;;;;;;;;;;;;;;4939413;28;19922;-75
2023/02/26 09:22:25;;;;;;;;;;;;;;;;;;4936925;28;19926;-75
2023/02/26 09:25:11;;;;;;;;;;;;;;;;;;4934972;28;19926;-75
2023/02/26 09:27:58;;;;;;;;;;;;;;;;;;4940567;28;19942;-75
2023/02/26 09:30:44;;;;;;;;;;;;;;;;;;4941238;28;20329;-74
2023/02/26 09:33:31;;;;;;;;;;;;;;;;;;4937309;29;19923;-75
2023/02/26 09:36:17;;;;;;;;;;;;;;;;;;4937661;28;19949;-75
2023/02/26 09:39:04;;;;;;;;;;;;;;;;;;4938351;28;19918;-75
2023/02/26 09:41:50;;;;;;;;;;;;;;;;;;4938970;29;19926;-74
2023/02/26 09:44:37;;;;;;;;;;;;;;;;;;4937660;29;19928;-75
2023/02/26 09:47:23;;;;;;;;;;;;;;;;;;4908688;29;20730;-75
2023/02/26 09:50:09;;;;;;;;;;;;;;;;;;4937198;28;19931;-75
2023/02/26 09:52:56;;;;;;;;;;;;;;;;;;4927543;28;19927;-75
2023/02/26 09:55:44;;;;;;;;;;;;;;;;;;4932982;29;19926;-76
2023/02/26 09:58:30;;;;;;;;;;;;;;;;;;4935445;28;19929;-75
2023/02/26 10:01:17;;;;;;;;;;;;;;;;;;4934921;28;19922;-76
2023/02/26 10:04:03;;;;;;;;;;;;;;;;;;4933449;29;19929;-75
2023/02/26 10:06:50;;;;;;;;;;;;;;;;;;4933928;29;20298;-75
2023/02/26 10:09:36;;;;;;;;;;;;;;;;;;4939827;29;19934;-76
2023/02/26 10:12:23;;;;;;;;;;;;;;;;;;4937997;29;19922;-77
2023/02/26 10:15:09;;;;;;;;;;;;;;;;;;4937526;29;19925;-75
2023/02/26 10:17:56;;;;;;;;;;;;;;;;;;4936037;29;19923;-75
2023/02/26 10:20:43;;;;;;;;;;;;;;;;;;4935889;29;20385;-76
2023/02/26 10:23:29;;;;;;;;;;;;;;;;;;4925658;29;19923;-76
2023/02/26 10:26:19;;;;;;;;;;;;;;;;;;4938169;29;20380;-76
2023/02/26 10:29:05;;;;;;;;;;;;;;;;;;4938613;28;20307;-76
2023/02/26 10:31:52;;;;;;;;;;;;;;;;;;4936997;29;19937;-76
2023/02/26 10:34:40;;;;;;;;;;;;;;;;;;4938710;29;19969;-75
2023/02/26 10:37:27;;;;;;;;;;;;;;;;;;4938794;29;19925;-74
2023/02/26 10:40:13;;;;;;;;;;;;;;;;;;4935983;29;20370;-76
2023/02/26 10:43:00;;;;;;;;;;;;;;;;;;4937376;29;19926;-75
2023/02/26 10:45:46;;;;;;;;;;;;;;;;;;4937651;28;20391;-75
2023/02/26 10:48:33;;;;;;;;;;;;;;;;;;4935796;29;19922;-75
2023/02/26 10:51:19;;;;;;;;;;;;;;;;;;4931875;29;19927;-75
2023/02/26 10:54:06;;;;;;;;;;;;;;;;;;4936266;29;19953;-75
2023/02/26 10:56:52;;;;;;;;;;;;;;;;;;4934058;29;19922;-77
2023/02/26 10:59:39;;;;;;;;;;;;;;;;;;4933751;29;20371;-76
2023/02/26 11:02:25;;;;;;;;;;;;;;;;;;4934682;29;19934;-76
2023/02/26 11:05:12;;;;;;;;;;;;;;;;;;4931519;29;19923;-76
2023/02/26 11:07:59;;;;;;;;;;;;;;;;;;4935492;28;19934;-76
2023/02/26 11:10:45;;;;;;;;;;;;;;;;;;4921661;29;19931;-76
2023/02/26 11:13:32;;;;;;;;;;;;;;;;;;4933967;28;20402;-75
2023/02/26 11:16:18;;;;;;;;;;;;;;;;;;4933158;29;20450;-75
2023/02/26 11:19:05;;;;;;;;;;;;;;;;;;4922876;29;19930;-76
2023/02/26 11:21:51;;;;;;;;;;;;;;;;;;4933289;29;19918;-75
2023/02/26 11:24:39;;;;;;;;;;;;;;;;;;4938817;28;20534;-75
2023/02/26 11:27:25;;;;;;;;;;;;;;;;;;4927538;29;19926;-75
2023/02/26 11:30:12;;;;;;;;;;;;;;;;;;4941335;28;20288;-75
2023/02/26 11:32:59;;;;;;;;;;;;;;;;;;4938045;28;19934;-75
2023/02/26 11:35:45;;;;;;;;;;;;;;;;;;4927232;29;20831;-74
2023/02/26 11:38:32;;;;;;;;;;;;;;;;;;4941492;28;19930;-76
2023/02/26 11:41:18;;;;;;;;;;;;;;;;;;4940402;29;19918;-76
2023/02/26 11:44:05;;;;;;;;;;;;;;;;;;4942545;28;19922;-75
2023/02/26 11:46:51;;;;;;;;;;;;;;;;;;4928979;29;20450;-75
2023/02/26 11:49:38;;;;;;;;;;;;;;;;;;4940626;29;19930;-76
2023/02/26 11:52:24;;;;;;;;;;;;;;;;;;4937780;28;20678;-77
2023/02/26 11:55:11;;;;;;;;;;;;;;;;;;4911453;29;19933;-77
2023/02/26 11:57:57;;;;;;;;;;;;;;;;;;4937371;28;19929;-76
2023/02/26 12:00:45;;;;;;;;;;;;;;;;;;4926575;28;19925;-76
2023/02/26 12:03:32;;;;;;;;;;;;;;;;;;4936253;28;20241;-74
2023/02/26 12:06:18;;;;;;;;;;;;;;;;;;4933697;28;19922;-74
2023/02/26 12:09:05;;;;;;;;;;;;;;;;;;4936601;29;19938;-75
2023/02/26 12:11:51;;;;;;;;;;;;;;;;;;4934985;28;19933;-77
2023/02/26 12:14:38;;;;;;;;;;;;;;;;;;4940996;28;20373;-78
2023/02/26 12:17:25;;;;;;;;;;;;;;;;;;4937687;29;20335;-77
2023/02/26 12:20:14;;;;;;;;;;;;;;;;;;4940043;28;20375;-77
2023/02/26 12:23:00;;;;;;;;;;;;;;;;;;4935261;28;20235;-78
2023/02/26 12:25:47;;;;;;;;;;;;;;;;;;4937508;28;19929;-77
2023/02/26 12:28:33;;;;;;;;;;;;;;;;;;4936325;29;20272;-78
2023/02/26 12:31:20;;;;;;;;;;;;;;;;;;4936338;29;19937;-77
2023/02/26 12:34:06;;;;;;;;;;;;;;;;;;4939990;29;19932;-78
2023/02/26 12:36:53;;;;;;;;;;;;;;;;;;4936568;28;19919;-77
2023/02/26 12:39:39;;;;;;;;;;;;;;;;;;4940153;29;20375;-82
2023/02/26 12:42:25;;;;;;;;;;;;;;;;;;4937616;28;19918;-77
2023/02/26 12:45:12;;;;;;;;;;;;;;;;;;4936030;29;19942;-75
2023/02/26 12:47:58;;;;;;;;;;;;;;;;;;4938226;28;19927;-76
2023/02/26 12:50:45;;;;;;;;;;;;;;;;;;4938255;28;20334;-78
2023/02/26 12:53:31;;;;;;;;;;;;;;;;;;4938856;28;20409;-76
2023/02/26 12:56:18;;;;;;;;;;;;;;;;;;4938285;28;19925;-77
2023/02/26 12:59:04;;;;;;;;;;;;;;;;;;4928669;29;19919;-77
2023/02/26 13:01:53;;;;;;;;;;;;;;;;;;4940262;28;19930;-76
2023/02/26 13:04:41;;;;;;;;;;;;;;;;;;4941500;28;19925;-76
2023/02/26 13:07:27;;;;;;;;;;;;;;;;;;4939631;28;19926;-77
2023/02/26 13:10:14;;;;;;;;;;;;;;;;;;4935425;29;19930;-77
2023/02/26 13:13:01;;;;;;;;;;;;;;;;;;4939018;28;19957;-76
2023/02/26 13:15:48;;;;;;;;;;;;;;;;;;4939790;29;19923;-77
2023/02/26 13:18:34;;;;;;;;;;;;;;;;;;4940573;29;19918;-74
2023/02/26 13:21:21;;;;;;;;;;;;;;;;;;4940902;29;19987;-76
2023/02/26 13:24:07;;;;;;;;;;;;;;;;;;4930132;29;19919;-75
2023/02/26 13:26:54;;;;;;;;;;;;;;;;;;4931855;28;20448;-76
2023/02/26 13:29:42;;;;;;;;;;;;;;;;;;4936608;29;20085;-76
2023/02/26 13:32:29;;;;;;;;;;;;;;;;;;4938115;28;19938;-76
2023/02/26 13:35:15;;;;;;;;;;;;;;;;;;4938989;28;19922;-74
2023/02/26 13:38:02;;;;;;;;;;;;;;;;;;4939321;28;19926;-77
2023/02/26 13:40:48;;;;;;;;;;;;;;;;;;4936312;29;20426;-75
2023/02/26 13:43:36;;;;;;;;;;;;;;;;;;4933197;28;19927;-79
2023/02/26 13:46:23;;;;;;;;;;;;;;;;;;4940503;29;19994;-75
2023/02/26 13:49:09;;;;;;;;;;;;;;;;;;4938694;28;20310;-80
2023/02/26 13:51:56;;;;;;;;;;;;;;;;;;4936251;29;19928;-80
2023/02/26 13:54:43;;;;;;;;;;;;;;;;;;4937345;28;20306;-78
2023/02/26 13:57:29;;;;;;;;;;;;;;;;;;4943163;28;19925;-79
2023/02/26 14:00:16;;;;;;;;;;;;;;;;;;4935868;28;19925;-78
2023/02/26 14:03:03;;;;;;;;;;;;;;;;;;4936044;29;19919;-79
2023/02/26 14:05:50;;;;;;;;;;;;;;;;;;4933736;28;19928;-81
2023/02/26 14:08:39;;;;;;;;;;;;;;;;;;4930577;29;19938;-79
2023/02/26 14:11:27;;;;;;;;;;;;;;;;;;4943737;28;19926;-79
2023/02/26 14:14:14;;;;;;;;;;;;;;;;;;4934542;29;20299;-79
2023/02/26 14:17:00;;;;;;;;;;;;;;;;;;4941173;28;19953;-79
2023/02/26 14:19:47;;;;;;;;;;;;;;;;;;4933919;28;20477;-79
2023/02/26 14:22:40;;;;;;;;;;;;;;;;;;4936199;29;22082;-77
2023/02/26 14:25:27;;;;;;;;;;;;;;;;;;4941816;29;19918;-79
2023/02/26 14:28:13;;;;;;;;;;;;;;;;;;4936315;29;19992;-78
2023/02/26 14:30:59;;;;;;;;;;;;;;;;;;4937118;29;19933;-79
2023/02/26 14:33:46;;;;;;;;;;;;;;;;;;4944225;29;19953;-79
2023/02/26 14:36:32;;;;;;;;;;;;;;;;;;4936836;29;19919;-78
2023/02/26 14:39:19;;;;;;;;;;;;;;;;;;4943015;29;19945;-79
2023/02/26 14:42:05;;;;;;;;;;;;;;;;;;4933491;29;19915;-80
2023/02/26 14:44:52;;;;;;;;;;;;;;;;;;4929655;29;19918;-79
2023/02/26 14:47:38;;;;;;;;;;;;;;;;;;4934348;29;19919;-79
2023/02/26 14:50:25;;;;;;;;;;;;;;;;;;4943792;29;19944;-78
2023/02/26 14:53:11;;;;;;;;;;;;;;;;;;4929001;29;19933;-78
2023/02/26 14:55:58;;;;;;;;;;;;;;;;;;4944183;29;19918;-79
2023/02/26 14:58:44;;;;;;;;;;;;;;;;;;4940381;29;19923;-78
2023/02/26 15:01:31;;;;;;;;;;;;;;;;;;4950111;28;20322;-79
2023/02/26 15:04:17;;;;;;;;;;;;;;;;;;4947759;29;19933;-78
2023/02/26 15:07:04;;;;;;;;;;;;;;;;;;4947430;29;20643;-79
2023/02/26 15:09:50;;;;;;;;;;;;;;;;;;4935607;29;19934;-78
2023/02/26 15:12:37;;;;;;;;;;;;;;;;;;4929848;29;19993;-78
2023/02/26 15:15:23;;;;;;;;;;;;;;;;;;4927463;29;19925;-77
2023/02/26 15:18:10;;;;;;;;;;;;;;;;;;4927666;29;19961;-78
2023/02/26 15:20:57;;;;;;;;;;;;;;;;;;4919397;29;19926;-79
2023/02/26 15:23:44;;;;;;;;;;;;;;;;;;4924651;29;20263;-78
2023/02/26 15:26:30;;;;;;;;;;;;;;;;;;4927151;29;20383;-79
2023/02/26 15:29:17;;;;;;;;;;;;;;;;;;4929178;29;19923;-79
2023/02/26 15:32:04;;;;;;;;;;;;;;;;;;4926842;29;19950;-79
2023/02/26 15:34:50;;;;;;;;;;;;;;;;;;4922998;29;20299;-79
2023/02/26 15:37:37;;;;;;;;;;;;;;;;;;4922477;29;19919;-79
2023/02/26 15:40:24;;;;;;;;;;;;;;;;;;4920396;29;19923;-79
2023/02/26 15:43:10;;;;;;;;;;;;;;;;;;4921586;29;19923;-79
2023/02/26 15:45:57;;;;;;;;;;;;;;;;;;4918094;29;19919;-78
2023/02/26 15:48:43;;;;;;;;;;;;;;;;;;4928032;29;19922;-78
2023/02/26 15:51:30;;;;;;;;;;;;;;;;;;4916204;29;20303;-79
2023/02/26 15:54:16;;;;;;;;;;;;;;;;;;4913126;29;20382;-79
2023/02/26 15:57:03;;;;;;;;;;;;;;;;;;4921686;29;19926;-79
2023/02/26 15:59:49;;;;;;;;;;;;;;;;;;4926296;29;19934;-79
2023/02/26 16:02:36;;;;;;;;;;;;;;;;;;4917239;29;19930;-79
2023/02/26 16:05:22;;;;;;;;;;;;;;;;;;4929901;29;19926;-79
2023/02/26 16:08:09;;;;;;;;;;;;;;;;;;4927344;29;19930;-79
2023/02/26 16:10:55;;;;;;;;;;;;;;;;;;4943376;29;19930;-79
2023/02/26 16:13:42;;;;;;;;;;;;;;;;;;4933345;29;19922;-78
2023/02/26 16:16:28;;;;;;;;;;;;;;;;;;4942313;28;20381;-79
2023/02/26 16:19:15;;;;;;;;;;;;;;;;;;4946809;29;20301;-79
2023/02/26 16:22:01;;;;;;;;;;;;;;;;;;4943541;29;19919;-79
2023/02/26 16:24:48;;;;;;;;;;;;;;;;;;4945737;29;20386;-79
2023/02/26 16:27:34;;;;;;;;;;;;;;;;;;4938848;28;19923;-79
2023/02/26 16:30:21;;;;;;;;;;;;;;;;;;4944783;29;19923;-80
2023/02/26 16:33:08;;;;;;;;;;;;;;;;;;4943836;29;19918;-79
2023/02/26 16:35:54;;;;;;;;;;;;;;;;;;4937666;28;19945;-78
2023/02/26 16:38:40;;;;;;;;;;;;;;;;;;4943640;29;19925;-78
2023/02/26 16:41:27;;;;;;;;;;;;;;;;;;4939534;28;19919;-79
2023/02/26 16:44:13;;;;;;;;;;;;;;;;;;4946659;29;19922;-78
2023/02/26 16:47:00;;;;;;;;;;;;;;;;;;4944209;28;19929;-78
2023/02/26 16:49:46;;;;;;;;;;;;;;;;;;4922605;28;20326;-79
2023/02/26 16:52:33;;;;;;;;;;;;;;;;;;4928427;29;19934;-79
2023/02/26 16:55:19;;;;;;;;;;;;;;;;;;4938484;28;19937;-79
2023/02/26 16:58:06;;;;;;;;;;;;;;;;;;4931652;29;20391;-79
2023/02/26 17:00:56;;;;;;;;;;;;;;;;;;4939774;29;19923;-78
2023/02/26 17:03:43;;;;;;;;;;;;;;;;;;4933465;28;19921;-78
2023/02/26 17:06:30;;;;;;;;;;;;;;;;;;4940414;29;19915;-78
2023/02/26 17:09:16;;;;;;;;;;;;;;;;;;4942988;29;19927;-79
2023/02/26 17:12:03;;;;;;;;;;;;;;;;;;4944549;29;19923;-79
2023/02/26 17:14:49;;;;;;;;;;;;;;;;;;4937485;28;19919;-79
2023/02/26 17:17:36;;;;;;;;;;;;;;;;;;4942372;29;19919;-79
2023/02/26 17:20:22;;;;;;;;;;;;;;;;;;4938775;29;19926;-79
2023/02/26 17:23:09;;;;;;;;;;;;;;;;;;4942307;28;19945;-78
2023/02/26 17:25:55;;;;;;;;;;;;;;;;;;4924631;28;19918;-78
2023/02/26 17:28:42;;;;;;;;;;;;;;;;;;4941465;29;19945;-78
2023/02/26 17:31:28;;;;;;;;;;;;;;;;;;4940164;28;20054;-78
2023/02/26 17:34:15;;;;;;;;;;;;;;;;;;4926934;28;19938;-79
2023/02/26 17:37:06;;;;;;;;;;;;;;;;;;4941628;29;19919;-79
2023/02/26 17:39:52;;;;;;;;;;;;;;;;;;4941224;28;19930;-79
2023/02/26 17:42:39;;;;;;;;;;;;;;;;;;4944451;28;20399;-78
2023/02/26 17:45:25;;;;;;;;;;;;;;;;;;4939187;28;19930;-79
2023/02/26 17:48:12;;;;;;;;;;;;;;;;;;4940331;29;19922;-79
2023/02/26 17:50:59;;;;;;;;;;;;;;;;;;4939463;28;19931;-79
2023/02/26 17:53:46;;;;;;;;;;;;;;;;;;4920839;29;19933;-79
2023/02/26 17:56:32;;;;;;;;;;;;;;;;;;4939823;28;19919;-79
2023/02/26 17:59:19;;;;;;;;;;;;;;;;;;4940267;29;19933;-79
2023/02/26 18:02:05;;;;;;;;;;;;;;;;;;4944316;28;19918;-79
2023/02/26 18:04:52;;;;;;;;;;;;;;;;;;4923989;29;19918;-79
2023/02/26 18:07:38;;;;;;;;;;;;;;;;;;4941676;28;19930;-79
2023/02/26 18:10:25;;;;;;;;;;;;;;;;;;4929039;28;19932;-80
2023/02/26 18:13:11;;;;;;;;;;;;;;;;;;4952320;28;19934;-79
2023/02/26 18:15:59;;;;;;;;;;;;;;;;;;4942077;29;20302;-79
2023/02/26 18:18:46;;;;;;;;;;;;;;;;;;4935942;29;19933;-79
2023/02/26 18:21:32;;;;;;;;;;;;;;;;;;4929802;29;19918;-79
2023/02/26 18:24:19;;;;;;;;;;;;;;;;;;4922019;28;19923;-79
2023/02/26 18:27:05;;;;;;;;;;;;;;;;;;4931537;29;19926;-79
2023/02/26 18:29:52;;;;;;;;;;;;;;;;;;4933917;28;19922;-79
2023/02/26 18:32:38;;;;;;;;;;;;;;;;;;4943802;29;19934;-79
2023/02/26 18:35:25;;;;;;;;;;;;;;;;;;4940518;28;19922;-80
2023/02/26 18:38:12;;;;;;;;;;;;;;;;;;4930958;29;19942;-79
2023/02/26 18:41:00;;;;;;;;;;;;;;;;;;4940802;29;19926;-79
2023/02/26 18:43:47;;;;;;;;;;;;;;;;;;4945100;29;19926;-79
2023/02/26 18:46:37;;;;;;;;;;;;;;;;;;4929263;29;19938;-80
2023/02/26 18:49:23;;;;;;;;;;;;;;;;;;4942820;29;19922;-79
2023/02/26 18:52:10;;;;;;;;;;;;;;;;;;4940308;29;20585;-80
2023/02/26 18:54:56;;;;;;;;;;;;;;;;;;4930049;29;19930;-80
2023/02/26 18:57:43;;;;;;;;;;;;;;;;;;4935860;29;20419;-79